Time;durP1;ratioP1;P1;durP2;ratioP2;P2;SDS_P1;SDS_P2;PMS_P1;PMS_P2;Temp;Humidity;BMP_temperature;BMP_pressure;BME280_temperature;BME280_humidity;BME280_pressure;Samples;Min_cycle;Max_cycle;Signal;HPM_P1;HPM_P2
2023/02/01 00:03:58;;;;;;;7.90;3.60;;;;;;;4.12;72.37;98378.23;231742;1193;138047;-71
2023/02/01 00:09:01;;;;;;;6.40;3.70;;;;;;;4.11;72.43;98376.88;235241;1193;138613;-72
2023/02/01 00:14:06;;;;;;;5.00;3.10;;;;;;;4.11;72.54;98382.11;231802;1193;138606;-72
2023/02/01 00:19:14;;;;;;;6.50;3.70;;;;;;;4.02;72.72;98375.34;233615;1192;138739;-72
2023/02/01 00:24:17;;;;;;;5.40;3.50;;;;;;;4.02;72.92;98381.85;232573;1193;139559;-71
2023/02/01 00:29:31;;;;;;;;;;;;;;;3.99;73.00;98374.06;231598;1199;139769;-71
2023/02/01 00:34:35;;;;;;;6.10;3.40;;;;;;;3.97;72.72;98366.98;231756;1193;125448;-72
2023/02/01 00:39:38;;;;;;;5.00;3.50;;;;;;;3.98;72.85;98359.02;230592;1199;138547;-71
2023/02/01 00:44:42;;;;;;;8.60;3.50;;;;;;;4.03;72.96;98354.40;234306;1193;138215;-72
2023/02/01 00:49:50;;;;;;;5.90;3.10;;;;;;;4.09;72.75;98343.42;231928;1193;138755;-71
2023/02/01 00:54:55;;;;;;;5.50;2.90;;;;;;;4.08;72.62;98345.23;231976;1193;139205;-71
2023/02/01 00:59:58;;;;;;;5.50;3.10;;;;;;;4.10;72.62;98351.30;233528;1193;139521;-71
2023/02/01 01:05:19;;;;;;;5.80;3.60;;;;;;;4.06;72.23;98354.62;232073;1193;138586;-72
2023/02/01 01:10:22;;;;;;;5.40;3.00;;;;;;;4.13;72.43;98353.20;231600;1193;138538;-70
2023/02/01 01:16:02;;;;;;;4.60;3.10;;;;;;;4.17;72.12;98347.07;233723;1193;137953;-70
2023/02/01 01:21:08;;;;;;;6.50;3.60;;;;;;;4.21;72.20;98361.11;233118;1193;138652;-71
2023/02/01 01:26:22;;;;;;;6.90;3.50;;;;;;;4.29;71.85;98362.15;231596;1193;138650;-72
2023/02/01 01:31:27;;;;;;;5.50;3.10;;;;;;;4.34;71.95;98362.42;230968;1196;138346;-72
2023/02/01 01:36:31;;;;;;;6.80;3.60;;;;;;;4.27;71.58;98370.99;235094;1193;138110;-72
2023/02/01 01:41:41;;;;;;;5.00;3.10;;;;;;;4.21;71.88;98370.55;233470;1193;139537;-72
2023/02/01 01:46:52;;;;;;;5.20;2.90;;;;;;;4.20;71.85;98367.98;231355;1193;138160;-72
2023/02/01 01:52:01;;;;;;;4.50;2.10;;;;;;;4.23;72.40;98361.02;233798;1196;139735;-72
2023/02/01 01:57:11;;;;;;;3.20;1.80;;;;;;;4.16;71.93;98352.59;232882;1193;138490;-74
2023/02/01 02:02:15;;;;;;;2.30;1.50;;;;;;;4.08;71.73;98356.65;230326;1199;138140;-72
2023/02/01 02:07:25;;;;;;;2.90;1.80;;;;;;;3.98;72.08;98362.36;234001;1193;139782;-72
2023/02/01 02:12:28;;;;;;;3.70;2.10;;;;;;;3.98;72.01;98366.92;232259;1193;139417;-69
2023/02/01 02:17:50;;;;;;;2.70;2.20;;;;;;;3.92;71.84;98371.56;229389;1197;139550;-71
2023/02/01 02:23:22;;;;;;;5.40;2.60;;;;;;;3.82;72.16;98381.01;230489;1192;138136;-73
2023/02/01 02:28:43;;;;;;;4.40;2.20;;;;;;;3.85;71.79;98386.48;234313;1193;138104;-70
2023/02/01 02:34:16;;;;;;;4.70;2.00;;;;;;;3.83;71.63;98392.02;233903;1196;140120;-71
2023/02/01 02:39:40;;;;;;;5.90;2.40;;;;;;;3.83;71.35;98390.74;233270;1193;138300;-71
2023/02/01 02:55:49;;;;;;;10.10;2.70;;;;;;;3.98;70.06;98407.30;232178;1195;139573;-73
2023/02/01 03:06:18;;;;;;;6.60;2.00;;;;;;;3.96;69.78;98420.55;233532;1194;138300;-72
2023/02/01 03:12:55;;;;;;;6.90;2.10;;;;;;;4.01;69.60;98420.83;232963;1195;138693;-71
2023/02/01 03:16:58;;;;;;;7.90;2.00;;;;;;;4.07;69.28;98419.35;235359;1193;138979;-71
2023/02/01 03:22:09;;;;;;;10.20;2.10;;;;;;;4.09;69.20;98428.92;233017;1193;138813;-72
2023/02/01 03:27:40;;;;;;;9.10;2.10;;;;;;;4.09;69.29;98431.71;231268;1193;139016;-72
2023/02/01 03:32:59;;;;;;;7.80;1.70;;;;;;;4.07;68.58;98446.90;232250;1193;138303;-72
2023/02/01 03:38:21;;;;;;;6.70;2.00;;;;;;;4.03;69.11;98462.86;232775;1194;138728;-71
2023/02/01 03:43:29;;;;;;;6.30;1.80;;;;;;;4.06;69.35;98460.09;229850;1193;138913;-72
2023/02/01 03:48:35;;;;;;;7.30;1.10;;;;;;;4.03;69.68;98464.27;234638;1193;138247;-71
2023/02/01 03:53:43;;;;;;;8.40;1.90;;;;;;;4.04;69.97;98472.28;231397;1193;138420;-69
2023/02/01 03:58:58;;;;;;;5.70;1.60;;;;;;;4.05;69.95;98473.50;233446;1192;139514;-72
2023/02/01 04:04:05;;;;;;;13.20;2.00;;;;;;;4.04;69.93;98469.48;234416;1192;137997;-71
2023/02/01 04:09:09;;;;;;;7.00;2.00;;;;;;;4.07;69.87;98468.67;233568;1192;138650;-72
2023/02/01 04:14:12;;;;;;;6.20;1.90;;;;;;;4.11;70.00;98466.55;235352;1192;139009;-72
2023/02/01 04:19:23;;;;;;;7.50;1.90;;;;;;;4.24;69.77;98463.34;233694;1192;138522;-71
2023/02/01 04:24:27;;;;;;;8.10;1.90;;;;;;;4.33;69.26;98459.73;232661;1193;137727;-71
2023/02/01 04:29:30;;;;;;;7.10;1.90;;;;;;;4.33;69.14;98470.47;233309;1191;138205;-72
2023/02/01 04:34:34;;;;;;;5.60;1.80;;;;;;;4.38;68.67;98459.16;231370;1193;138733;-71
2023/02/01 04:39:37;;;;;;;4.70;1.50;;;;;;;4.35;68.68;98468.77;231711;1193;138348;-72
2023/02/01 04:44:41;;;;;;;5.60;1.60;;;;;;;4.30;68.57;98472.19;233025;1192;138464;-71
2023/02/01 04:49:45;;;;;;;6.00;1.60;;;;;;;4.31;68.49;98477.95;232107;1193;138614;-71
2023/02/01 04:54:48;;;;;;;4.50;1.50;;;;;;;4.35;68.66;98485.49;232286;1196;138891;-71
2023/02/01 04:59:51;;;;;;;7.80;1.60;;;;;;;4.43;68.73;98485.28;232410;1193;138647;-71
2023/02/01 05:04:55;;;;;;;6.40;1.90;;;;;;;4.45;68.39;98486.23;233310;1193;138757;-72
2023/02/01 05:09:59;;;;;;;5.70;1.80;;;;;;;4.44;68.22;98486.28;233464;1192;138830;-70
2023/02/01 05:15:03;;;;;;;4.50;1.50;;;;;;;4.39;67.97;98487.72;233801;1193;141062;-71
2023/02/01 05:20:07;;;;;;;6.60;2.20;;;;;;;4.33;68.28;98480.27;231140;1193;138097;-71
2023/02/01 05:25:11;;;;;;;4.70;2.00;;;;;;;4.37;68.38;98475.90;229924;1199;138672;-73
2023/02/01 05:30:15;;;;;;;5.60;2.00;;;;;;;4.47;68.24;98480.88;232208;1192;139018;-71
2023/02/01 05:35:19;;;;;;;3.70;1.80;;;;;;;4.47;67.73;98483.88;232105;1192;140289;-72
2023/02/01 05:40:22;;;;;;;5.40;1.80;;;;;;;4.41;68.13;98482.71;232927;1193;138309;-72
2023/02/01 05:45:26;;;;;;;4.00;2.00;;;;;;;4.38;68.15;98484.63;235285;1192;138139;-70
2023/02/01 05:50:32;;;;;;;;;;;;;;;4.35;67.73;98484.24;232035;1193;139105;-71
2023/02/01 05:55:44;;;;;;;5.80;2.40;;;;;;;4.28;68.12;98477.70;231317;1196;124726;-71
2023/02/01 06:00:47;;;;;;;5.30;2.40;;;;;;;4.31;68.23;98468.95;232094;1193;138483;-70
2023/02/01 06:05:50;;;;;;;4.20;2.10;;;;;;;4.30;68.47;98470.08;234374;1193;139118;-71
2023/02/01 06:11:02;;;;;;;9.70;2.60;;;;;;;4.28;68.17;98475.08;235414;1193;138836;-71
2023/02/01 06:16:07;;;;;;;8.50;2.90;;;;;;;4.31;68.04;98476.88;234186;1193;138621;-71
2023/02/01 06:21:12;;;;;;;6.80;2.80;;;;;;;4.29;67.71;98473.29;232594;1193;138755;-72
2023/02/01 06:26:17;;;;;;;5.90;2.70;;;;;;;4.31;67.72;98472.67;235227;1193;138509;-72
2023/02/01 06:31:20;;;;;;;8.20;3.40;;;;;;;4.26;67.62;98472.17;235067;1193;139065;-72
2023/02/01 06:36:24;;;;;;;8.80;2.90;;;;;;;4.27;67.54;98473.73;233548;1193;138241;-70
2023/02/01 06:41:27;;;;;;;7.70;3.10;;;;;;;4.22;67.37;98476.58;234774;1193;138764;-71
2023/02/01 06:46:31;;;;;;;8.50;3.60;;;;;;;4.24;67.30;98469.81;232485;1193;139510;-71
2023/02/01 06:51:35;;;;;;;9.70;3.90;;;;;;;4.37;67.16;98473.59;233915;1192;138496;-72
2023/02/01 06:56:38;;;;;;;8.60;3.70;;;;;;;4.45;66.69;98473.59;232525;1193;138109;-73
2023/02/01 07:01:42;;;;;;;9.70;3.50;;;;;;;4.49;66.17;98466.93;234277;1193;137987;-72
2023/02/01 07:06:45;;;;;;;8.50;3.50;;;;;;;4.50;66.54;98470.73;233216;1194;138182;-72
2023/02/01 07:11:48;;;;;;;9.50;4.00;;;;;;;4.52;66.36;98469.02;234208;1193;138476;-71
2023/02/01 07:16:52;;;;;;;8.80;3.70;;;;;;;4.53;65.81;98471.66;235191;1193;138369;-71
2023/02/01 07:21:55;;;;;;;10.60;4.10;;;;;;;4.56;65.95;98466.56;231691;1196;138456;-72
2023/02/01 07:26:58;;;;;;;9.00;3.40;;;;;;;4.61;65.86;98466.36;234946;1193;140839;-71
2023/02/01 07:32:02;;;;;;;9.00;3.50;;;;;;;4.63;65.33;98462.21;233957;1193;138103;-72
2023/02/01 07:37:06;;;;;;;9.10;3.20;;;;;;;4.65;65.37;98455.10;229839;1197;139242;-71
2023/02/01 07:42:09;;;;;;;7.90;2.70;;;;;;;4.74;64.98;98448.50;229540;1196;138836;-73
2023/02/01 07:47:13;;;;;;;12.60;3.70;;;;;;;4.84;64.38;98451.90;231076;1192;138628;-72
2023/02/01 07:53:00;;;;;;;8.70;3.40;;;;;;;4.93;64.19;98435.44;229652;1192;140487;-72
2023/02/01 07:58:36;;;;;;;7.80;3.50;;;;;;;5.02;63.26;98440.15;231429;1197;138749;-70
2023/02/01 08:03:40;;;;;;;14.70;3.90;;;;;;;5.02;63.59;98444.73;230230;1192;101797;-71
2023/02/01 08:08:44;;;;;;;10.20;3.40;;;;;;;5.02;63.25;98443.98;230070;1196;138061;-72
2023/02/01 08:13:52;;;;;;;11.20;3.20;;;;;;;5.05;63.06;98441.74;229702;1196;138419;-71
2023/02/01 08:26:43;;;;;;;6.30;2.80;;;;;;;4.89;63.02;98440.03;229578;1195;138177;-70
2023/02/01 08:39:23;;;;;;;11.30;3.50;;;;;;;4.98;62.90;98437.88;231999;1193;138829;-71
2023/02/01 08:45:20;;;;;;;10.60;3.90;;;;;;;5.01;62.53;98442.61;230687;1196;137954;-71
2023/02/01 08:50:48;;;;;;;13.80;3.80;;;;;;;4.98;63.00;98449.10;230303;1196;139782;-73
2023/02/01 08:55:53;;;;;;;9.40;3.70;;;;;;;5.01;63.06;98451.95;231147;1198;138698;-74
2023/02/01 09:01:02;;;;;;;10.30;4.00;;;;;;;5.00;62.64;98452.00;230123;1194;139065;-73
2023/02/01 09:06:21;;;;;;;11.30;3.50;;;;;;;4.96;62.81;98445.87;231334;1195;138995;-74
2023/02/01 09:19:58;;;;;;;6.70;3.20;;;;;;;5.03;63.15;98426.91;230159;1198;138519;-73
2023/02/01 09:25:13;;;;;;;8.70;3.60;;;;;;;5.19;62.70;98425.70;230677;1200;107424;-73
2023/02/01 09:54:14;;;;;;;9.00;3.80;;;;;;;5.39;62.93;98400.61;230652;1197;101985;-75
2023/02/01 09:59:31;;;;;;;11.20;4.10;;;;;;;5.44;62.26;98404.58;229592;1198;139049;-72
2023/02/01 10:06:01;;;;;;;7.90;3.80;;;;;;;5.53;61.84;98396.40;230210;1199;138433;-73
2023/02/01 10:19:18;;;;;;;6.30;2.80;;;;;;;5.54;61.68;98394.96;230159;1198;138051;-74
2023/02/01 10:24:40;;;;;;;8.40;3.20;;;;;;;5.48;62.33;98397.72;230589;1196;138027;-72
2023/02/01 10:29:51;;;;;;;10.30;3.00;;;;;;;5.50;62.99;98396.36;231025;1199;139528;-72
2023/02/01 10:35:17;;;;;;;9.20;2.90;;;;;;;5.47;63.09;98403.23;231208;1193;138421;-72
2023/02/01 10:48:50;;;;;;;8.30;2.50;;;;;;;5.41;63.81;98391.89;230347;1194;138478;-73
2023/02/01 10:54:39;;;;;;;6.20;2.40;;;;;;;5.35;64.18;98395.04;231777;1196;138461;-74
2023/02/01 11:36:27;;;;;;;8.60;3.40;;;;;;;5.23;65.19;98359.60;230268;1196;138400;-72
2023/02/01 11:41:32;;;;;;;8.30;3.40;;;;;;;5.23;64.89;98359.45;233121;1195;138577;-72
2023/02/01 11:46:35;;;;;;;6.60;2.80;;;;;;;5.20;65.27;98346.58;233392;1196;140283;-72
2023/02/01 11:51:47;;;;;;;6.70;3.10;;;;;;;5.28;65.32;98344.95;232684;1194;138873;-71
2023/02/01 11:56:56;;;;;;;8.40;2.50;;;;;;;5.34;65.03;98343.22;234002;1195;138326;-71
2023/02/01 12:02:37;;;;;;;7.00;2.70;;;;;;;5.35;64.97;98345.64;233904;1193;138300;-70
2023/02/01 12:07:53;;;;;;;8.00;3.20;;;;;;;5.35;65.34;98330.83;234329;1195;139609;-70
2023/02/01 12:13:12;;;;;;;7.20;2.90;;;;;;;5.33;65.79;98321.23;232064;1197;138276;-71
2023/02/01 12:57:02;;;;;;;12.10;3.80;;;;;;;5.40;66.46;98279.57;230815;1192;107369;-71
2023/02/01 13:02:22;;;;;;;7.30;2.80;;;;;;;5.44;65.88;98274.39;232026;1195;139352;-70
2023/02/01 13:07:41;;;;;;;10.20;3.80;;;;;;;5.42;65.30;98279.25;233274;1196;138824;-71
2023/02/01 13:12:53;;;;;;;7.00;3.50;;;;;;;5.41;65.66;98277.58;232957;1193;138979;-70
2023/02/01 13:18:02;;;;;;;7.80;3.40;;;;;;;5.38;65.34;98285.30;233848;1196;138435;-72
2023/02/01 13:23:34;;;;;;;8.20;3.40;;;;;;;5.32;65.53;98280.17;232258;1193;138447;-71
2023/02/01 13:28:51;;;;;;;10.30;3.70;;;;;;;5.33;65.42;98264.31;234270;1192;137958;-70
2023/02/01 13:34:20;;;;;;;9.90;4.00;;;;;;;5.41;65.48;98255.23;235606;1195;139072;-69
2023/02/01 13:39:29;;;;;;;7.30;3.50;;;;;;;5.47;65.77;98251.94;235546;1193;138999;-70
2023/02/01 13:44:44;;;;;;;11.00;3.70;;;;;;;5.55;65.53;98251.85;235462;1193;138838;-70
2023/02/01 13:49:48;;;;;;;9.40;3.60;;;;;;;5.59;64.99;98256.55;231392;1196;138737;-71
2023/02/01 13:55:22;;;;;;;8.90;3.40;;;;;;;5.59;65.09;98254.09;232956;1195;138429;-70
2023/02/01 14:00:30;;;;;;;9.80;4.10;;;;;;;5.54;65.35;98257.71;234922;1193;139373;-70
2023/02/01 14:05:34;;;;;;;9.70;4.00;;;;;;;5.54;65.46;98260.50;233639;1192;139214;-71
2023/02/01 14:10:58;;;;;;;8.30;3.50;;;;;;;5.56;65.42;98250.91;232325;1196;139849;-72
2023/02/01 14:16:02;;;;;;;9.60;3.80;;;;;;;5.59;65.32;98243.37;232006;1192;139131;-71
2023/02/01 14:21:53;;;;;;;6.90;3.60;;;;;;;5.72;65.05;98238.95;233660;1192;139022;-73
2023/02/01 14:27:13;;;;;;;11.70;4.70;;;;;;;5.78;64.62;98236.33;232447;1193;114719;-74
2023/02/01 14:32:25;;;;;;;8.30;3.80;;;;;;;5.76;64.47;98228.90;232633;1193;138679;-72
2023/02/01 14:37:36;;;;;;;9.20;4.30;;;;;;;5.76;64.30;98226.25;232828;1196;138717;-72
2023/02/01 14:42:42;;;;;;;8.50;3.60;;;;;;;5.77;64.34;98219.84;232948;1193;139315;-73
2023/02/01 14:47:54;;;;;;;5.60;3.00;;;;;;;5.71;64.65;98221.39;232114;1193;138615;-72
2023/02/01 14:53:12;;;;;;;7.20;2.90;;;;;;;5.59;65.05;98214.00;233731;1197;138874;-72
2023/02/01 14:58:27;;;;;;;8.20;3.40;;;;;;;5.56;65.42;98214.85;235444;1193;139060;-73
2023/02/01 15:03:42;;;;;;;6.30;3.10;;;;;;;5.58;65.72;98221.58;233713;1196;139121;-73
2023/02/01 15:09:13;;;;;;;6.80;3.20;;;;;;;5.56;66.02;98231.39;235008;1196;138634;-72
2023/02/01 15:14:26;;;;;;;7.80;3.60;;;;;;;5.47;66.17;98238.75;235627;1193;138454;-72
2023/02/01 15:19:30;;;;;;;4.60;2.70;;;;;;;5.38;66.93;98245.53;231574;1193;138193;-74
2023/02/01 15:24:34;;;;;;;4.70;2.50;;;;;;;5.17;67.65;98249.84;234909;1197;139214;-73
2023/02/01 15:29:38;;;;;;;4.70;2.60;;;;;;;5.04;68.26;98257.19;230879;1196;139607;-74
2023/02/01 15:34:47;;;;;;;4.80;2.40;;;;;;;5.01;68.61;98261.75;231701;1196;139016;-73
2023/02/01 15:40:24;;;;;;;5.20;2.70;;;;;;;4.95;68.78;98270.83;233593;1195;138315;-73
2023/02/01 15:45:32;;;;;;;6.10;3.10;;;;;;;4.81;69.03;98264.70;233184;1193;138410;-72
2023/02/01 15:50:40;;;;;;;5.80;2.90;;;;;;;4.64;69.51;98274.55;232365;1193;138396;-73
2023/02/01 15:55:45;;;;;;;5.80;3.50;;;;;;;4.56;69.90;98265.48;232286;1196;139938;-73
2023/02/01 16:01:04;;;;;;;5.50;3.20;;;;;;;4.54;70.33;98278.23;233876;1193;139929;-73
2023/02/01 16:06:12;;;;;;;7.30;3.20;;;;;;;4.54;69.97;98278.02;232286;1196;138906;-72
2023/02/01 16:11:30;;;;;;;7.30;4.10;;;;;;;4.52;70.37;98282.67;232150;1193;138431;-73
2023/02/01 16:16:34;;;;;;;6.90;3.70;;;;;;;4.47;70.39;98283.98;234491;1193;138940;-73
2023/02/01 16:21:38;;;;;;;7.00;4.00;;;;;;;4.43;70.51;98288.21;234506;1193;138933;-73
2023/02/01 16:26:43;;;;;;;7.10;4.60;;;;;;;4.50;70.86;98285.78;232902;1196;140872;-73
2023/02/01 16:31:49;;;;;;;8.50;4.60;;;;;;;4.58;70.76;98283.09;231626;1193;140031;-72
2023/02/01 16:36:55;;;;;;;8.90;4.50;;;;;;;4.64;70.48;98292.80;232845;1193;138333;-74
2023/02/01 16:41:58;;;;;;;7.00;4.10;;;;;;;4.65;70.19;98313.85;232832;1196;138294;-74
2023/02/01 16:47:12;;;;;;;7.90;4.70;;;;;;;4.60;70.26;98315.00;233182;1196;139143;-73
2023/02/01 16:52:19;;;;;;;6.40;4.10;;;;;;;4.62;70.35;98323.64;232785;1196;138866;-72
2023/02/01 16:57:23;;;;;;;6.60;4.50;;;;;;;4.71;70.42;98328.85;232784;1198;139340;-72
2023/02/01 17:02:27;;;;;;;9.60;4.90;;;;;;;4.84;70.30;98333.65;234925;1196;139002;-72
2023/02/01 17:07:31;;;;;;;9.00;4.90;;;;;;;4.89;70.24;98328.96;235635;1193;138138;-74
2023/02/01 17:12:35;;;;;;;8.40;4.90;;;;;;;4.90;70.11;98335.77;235602;1191;138381;-73
2023/02/01 17:17:41;;;;;;;7.70;4.50;;;;;;;4.81;70.01;98331.69;235546;1193;139145;-72
2023/02/01 17:22:45;;;;;;;;;;;;;;;4.72;70.27;98336.68;232265;1196;138197;-72
2023/02/01 17:27:48;;;;;;;8.90;5.00;;;;;;;4.72;70.76;98336.66;230714;1197;125587;-74
2023/02/01 17:32:52;;;;;;;9.80;5.90;;;;;;;4.80;70.62;98345.77;231206;1196;138639;-73
2023/02/01 17:37:56;;;;;;;10.10;5.70;;;;;;;4.89;70.69;98343.20;232531;1193;139165;-73
2023/02/01 17:43:00;;;;;;;9.80;5.90;;;;;;;4.96;70.47;98341.45;232923;1193;138059;-72
2023/02/01 17:48:05;;;;;;;10.60;5.40;;;;;;;4.93;70.69;98347.93;233062;1193;138328;-73
2023/02/01 17:53:10;;;;;;;10.00;5.70;;;;;;;4.87;70.51;98352.65;233496;1196;138297;-72
2023/02/01 17:58:15;;;;;;;8.00;4.90;;;;;;;4.78;70.79;98363.98;234746;1193;139044;-72
2023/02/01 18:03:23;;;;;;;9.20;5.60;;;;;;;4.72;70.76;98355.98;232455;1192;139101;-72
2023/02/01 18:08:29;;;;;;;10.60;5.50;;;;;;;4.77;70.52;98337.48;231810;1196;138983;-73
2023/02/01 18:13:32;;;;;;;9.20;5.90;;;;;;;4.79;70.47;98323.70;230975;1196;138832;-73
2023/02/01 18:18:36;;;;;;;10.80;7.10;;;;;;;4.80;70.26;98328.22;231868;1196;138432;-73
2023/02/01 18:23:41;;;;;;;9.10;6.40;;;;;;;4.82;70.30;98333.73;232539;1193;138904;-74
2023/02/01 18:28:44;;;;;;;11.70;7.40;;;;;;;4.79;70.52;98322.12;235183;1193;138163;-73
2023/02/01 18:33:50;;;;;;;14.50;6.70;;;;;;;4.78;70.15;98318.45;231529;1193;138422;-73
2023/02/01 18:38:56;;;;;;;11.90;7.20;;;;;;;4.81;70.21;98314.42;233204;1193;139211;-73
2023/02/01 18:44:00;;;;;;;12.40;7.20;;;;;;;4.90;70.29;98303.64;235498;1193;140010;-73
2023/02/01 18:49:04;;;;;;;12.90;7.10;;;;;;;4.96;69.95;98308.26;232895;1196;140314;-73
2023/02/01 18:54:09;;;;;;;14.00;6.30;;;;;;;5.00;69.68;98313.14;232285;1196;138673;-73
2023/02/01 18:59:13;;;;;;;12.00;6.20;;;;;;;4.98;69.48;98310.61;235384;1193;138235;-72
2023/02/01 19:04:17;;;;;;;11.20;5.60;;;;;;;4.97;69.43;98304.84;235483;1193;138683;-73
2023/02/01 19:09:30;;;;;;;12.10;5.60;;;;;;;4.92;69.45;98305.63;235248;1192;138553;-71
2023/02/01 19:14:34;;;;;;;9.60;5.00;;;;;;;4.88;69.73;98299.33;234526;1192;139501;-72
2023/02/01 19:19:37;;;;;;;12.60;5.70;;;;;;;4.94;69.40;98288.29;234775;1193;139274;-72
2023/02/01 19:31:50;;;;;;;12.10;6.40;;;;;;;5.00;69.00;98280.77;234216;1193;138420;-72
2023/02/01 19:36:54;;;;;;;12.00;7.20;;;;;;;4.96;68.80;98271.83;232544;1193;138840;-72
2023/02/01 19:41:58;;;;;;;14.90;6.90;;;;;;;4.91;69.20;98274.20;231867;1193;138776;-73
2023/02/01 19:47:02;;;;;;;13.90;7.10;;;;;;;4.88;69.13;98276.14;231237;1193;138420;-74
2023/02/01 19:52:05;;;;;;;17.10;7.50;;;;;;;4.84;69.17;98278.28;233923;1192;138533;-73
2023/02/01 19:57:09;;;;;;;18.60;8.40;;;;;;;4.87;69.58;98276.17;232736;1193;139260;-72
2023/02/01 20:02:14;;;;;;;16.00;8.30;;;;;;;4.96;69.16;98274.48;233469;1192;139092;-71
2023/02/01 20:07:17;;;;;;;14.20;8.20;;;;;;;5.00;68.74;98270.25;233969;1193;138877;-72
2023/02/01 20:12:21;;;;;;;15.60;7.20;;;;;;;4.89;68.47;98274.45;235473;1192;138668;-72
2023/02/01 20:17:56;;;;;;;12.80;6.80;;;;;;;4.82;68.93;98276.11;235375;1193;138569;-72
2023/02/01 20:23:02;;;;;;;16.10;7.30;;;;;;;4.75;69.30;98272.41;235410;1193;138451;-72
2023/02/01 20:28:05;;;;;;;12.70;6.40;;;;;;;4.78;69.55;98264.52;233259;1192;139381;-72
2023/02/01 20:33:09;;;;;;;13.40;7.00;;;;;;;4.85;69.54;98258.38;235269;1192;139072;-71
2023/02/01 20:38:13;;;;;;;14.40;6.30;;;;;;;4.86;69.39;98248.48;233718;1192;139331;-72
2023/02/01 20:43:17;;;;;;;13.20;6.60;;;;;;;4.87;69.23;98243.69;235525;1193;139457;-72
2023/02/01 20:48:21;;;;;;;13.50;6.60;;;;;;;4.83;69.30;98239.98;235262;1193;139531;-72
2023/02/01 20:53:25;;;;;;;14.80;6.80;;;;;;;4.79;69.24;98237.05;235440;1193;138442;-72
2023/02/01 20:58:30;;;;;;;13.90;6.20;;;;;;;4.77;69.37;98228.88;235242;1193;138914;-72
2023/02/01 21:03:34;;;;;;;14.20;6.90;;;;;;;4.83;69.08;98225.96;235396;1195;139397;-73
2023/02/01 21:08:38;;;;;;;13.60;6.70;;;;;;;4.88;69.48;98213.21;234177;1193;138859;-70
2023/02/01 21:13:49;;;;;;;12.90;6.60;;;;;;;4.95;69.05;98205.61;233852;1196;139077;-72
2023/02/01 21:18:52;;;;;;;11.90;6.10;;;;;;;5.01;69.22;98196.19;233788;1192;138418;-72
2023/02/01 21:23:57;;;;;;;12.60;5.90;;;;;;;4.96;68.89;98187.63;233768;1193;138572;-72
2023/02/01 21:29:00;;;;;;;14.20;6.00;;;;;;;4.94;69.29;98174.21;235384;1192;138728;-71
2023/02/01 21:34:05;;;;;;;9.50;4.80;;;;;;;4.95;68.91;98174.34;232597;1193;138722;-72
2023/02/01 21:39:10;;;;;;;9.30;4.70;;;;;;;4.98;68.99;98161.20;234723;1192;139149;-70
2023/02/01 21:44:14;;;;;;;10.40;4.70;;;;;;;5.10;68.97;98150.51;234081;1193;138910;-71
2023/02/01 21:49:17;;;;;;;9.50;4.50;;;;;;;5.19;68.29;98141.09;233524;1193;138974;-72
2023/02/01 21:54:20;;;;;;;10.70;4.50;;;;;;;5.24;68.13;98136.73;235169;1192;138617;-72
2023/02/01 21:59:24;;;;;;;9.10;3.80;;;;;;;5.23;67.98;98137.70;235298;1193;138460;-71
2023/02/01 22:04:27;;;;;;;7.20;3.50;;;;;;;5.23;67.62;98139.95;235570;1192;138712;-71
2023/02/01 22:09:30;;;;;;;8.70;3.80;;;;;;;5.13;67.79;98140.86;233431;1193;139069;-72
2023/02/01 22:14:34;;;;;;;7.60;3.30;;;;;;;5.14;68.31;98132.20;235603;1192;138796;-72
2023/02/01 22:19:38;;;;;;;5.60;3.00;;;;;;;5.12;68.24;98134.42;235527;1192;139623;-71
2023/02/01 22:24:42;;;;;;;7.20;3.30;;;;;;;5.05;68.56;98128.27;233926;1196;138928;-72
2023/02/01 22:29:45;;;;;;;8.20;3.00;;;;;;;4.99;68.95;98122.80;235500;1193;138788;-72
2023/02/01 22:34:49;;;;;;;8.10;3.30;;;;;;;4.93;69.43;98111.73;231731;1193;139995;-72
2023/02/01 22:39:54;;;;;;;6.90;2.70;;;;;;;4.87;69.35;98104.14;231506;1196;138380;-73
2023/02/01 22:44:59;;;;;;;6.80;3.00;;;;;;;4.81;70.09;98105.02;234257;1192;139624;-71
2023/02/01 22:51:10;;;;;;;8.50;3.30;;;;;;;4.82;69.90;98104.72;235382;1196;139025;-70
2023/02/01 22:56:15;;;;;;;7.60;3.10;;;;;;;4.87;69.83;98095.50;235323;1193;138430;-72
2023/02/01 23:01:19;;;;;;;9.30;3.70;;;;;;;4.78;70.13;98095.13;234686;1192;138501;-71
2023/02/01 23:06:22;;;;;;;6.60;3.40;;;;;;;4.64;70.39;98094.11;232271;1194;138375;-72
2023/02/01 23:11:27;;;;;;;9.30;3.80;;;;;;;4.60;70.43;98090.62;234453;1193;138939;-72
2023/02/01 23:16:31;;;;;;;11.30;4.30;;;;;;;4.60;70.45;98093.28;234796;1192;138494;-72
2023/02/01 23:21:35;;;;;;;8.40;3.60;;;;;;;4.65;70.41;98089.51;231065;1193;139064;-71
2023/02/01 23:26:38;;;;;;;8.90;3.90;;;;;;;4.75;70.10;98087.92;231444;1192;139002;-72
2023/02/01 23:31:42;;;;;;;7.90;3.70;;;;;;;4.82;69.91;98084.56;233078;1193;138646;-71
2023/02/01 23:36:45;;;;;;;8.30;3.80;;;;;;;4.86;69.66;98084.50;234369;1196;138907;-72
2023/02/01 23:41:49;;;;;;;9.50;4.00;;;;;;;4.89;69.63;98090.64;234591;1192;138724;-73
2023/02/01 23:46:52;;;;;;;9.30;3.60;;;;;;;4.85;69.23;98088.60;231879;1193;138438;-72
2023/02/01 23:52:28;;;;;;;7.70;3.20;;;;;;;4.88;69.54;98086.71;233540;1193;138347;-71
2023/02/01 23:57:31;;;;;;;7.00;3.10;;;;;;;4.95;69.48;98083.67;233350;1192;140036;-72
